createdAt,value
2018-03-16T18:11:59.867Z,7.40
2018-03-16T18:14:28.543Z,7.30
2018-03-16T18:16:56.927Z,7.20
2018-03-16T18:19:25.319Z,7.20
2018-03-16T18:21:53.951Z,7.10
2018-03-16T18:24:22.445Z,7.10
2018-03-16T18:26:51.096Z,7.10
2018-03-16T18:29:20.246Z,7.10
2018-03-16T18:31:49.441Z,7.00
2018-03-16T18:34:18.146Z,7.00
2018-03-16T18:36:46.534Z,7.10
2018-03-16T18:39:14.922Z,7.10
2018-03-16T18:41:43.585Z,7.10
2018-03-16T18:44:12.230Z,7.00
2018-03-16T18:46:40.754Z,7.00
2018-03-16T18:49:09.402Z,6.90
2018-03-16T18:51:38.829Z,6.80
2018-03-16T18:54:07.470Z,6.80
2018-03-16T18:56:35.874Z,6.70
2018-03-16T18:59:03.596Z,6.60
2018-03-16T19:01:32.741Z,6.60
2018-03-16T19:04:01.098Z,6.60
2018-03-16T19:06:29.710Z,6.50
2018-03-16T19:08:58.387Z,6.40
2018-03-16T19:11:26.881Z,6.30
2018-03-16T19:13:55.520Z,6.20
2018-03-16T19:16:24.837Z,6.00
2018-03-16T19:18:53.218Z,6.00
2018-03-16T19:21:21.611Z,6.00
2018-03-16T19:23:49.997Z,6.00
2018-03-16T19:26:18.651Z,5.90
2018-03-16T19:28:46.877Z,5.90
2018-03-16T19:31:15.877Z,5.80
2018-03-16T19:33:44.297Z,5.70
2018-03-16T19:36:12.679Z,5.70
2018-03-16T19:38:41.070Z,5.70
2018-03-16T19:41:09.458Z,5.60
2018-03-16T19:43:38.110Z,5.60
2018-03-16T19:46:06.503Z,5.50
2018-03-16T19:48:34.887Z,5.50
2018-03-16T19:51:03.543Z,5.50
2018-03-16T19:53:32.187Z,5.40
2018-03-16T19:56:00.830Z,5.40
2018-03-16T19:58:29.328Z,5.30
2018-03-16T20:00:57.713Z,5.30
2018-03-16T20:03:26.452Z,5.30
2018-03-16T20:05:55.866Z,5.20
2018-03-16T20:08:24.266Z,5.20
2018-03-16T20:10:52.650Z,5.10
2018-03-16T20:13:21.529Z,5.10
2018-03-16T20:15:49.930Z,5.00
2018-03-16T20:18:18.329Z,5.00
2018-03-16T20:20:46.749Z,5.00
2018-03-16T20:23:14.827Z,5.00
2018-03-16T20:25:45.054Z,4.80
2018-03-16T20:28:13.363Z,4.80
2018-03-16T20:30:42.031Z,4.70
2018-03-16T20:33:10.683Z,4.70
2018-03-16T20:35:39.475Z,4.80
2018-03-16T20:38:07.547Z,4.90
2018-03-16T20:40:37.212Z,4.90
2018-03-16T20:43:06.380Z,4.90
2018-03-16T20:45:34.821Z,4.90
2018-03-16T20:48:03.405Z,4.90
2018-03-16T20:50:32.827Z,5.00
2018-03-16T20:53:01.475Z,4.90
2018-03-16T20:55:30.123Z,4.80
2018-03-16T20:57:59.387Z,4.70
2018-03-16T21:00:27.811Z,4.70
2018-03-16T21:02:56.466Z,4.60
2018-03-16T21:05:24.962Z,4.60
2018-03-16T21:07:54.115Z,4.60
2018-03-16T21:10:22.651Z,4.60
2018-03-16T21:12:51.294Z,4.60
2018-03-16T21:15:19.686Z,4.70
2018-03-16T21:17:48.170Z,4.80
2018-03-16T21:20:16.921Z,4.70
2018-03-16T21:22:45.618Z,4.70
2018-03-16T21:25:14.002Z,4.80
2018-03-16T21:27:42.649Z,4.90
2018-03-16T21:30:11.978Z,5.00
2018-03-16T21:32:40.622Z,5.00
2018-03-16T21:35:08.849Z,5.00
2018-03-16T21:37:38.038Z,5.00
2018-03-16T21:40:06.646Z,5.00
2018-03-16T21:42:35.925Z,4.90
2018-03-16T21:45:03.738Z,4.80
2018-03-16T21:47:32.411Z,4.70
2018-03-16T21:50:01.561Z,4.40
2018-03-16T21:52:30.223Z,4.30
2018-03-16T21:54:58.827Z,4.30
2018-03-16T21:57:27.219Z,4.20
2018-03-16T21:59:55.591Z,4.10
2018-03-16T22:02:24.315Z,4.10
2018-03-16T22:04:53.673Z,4.00
2018-03-16T22:07:22.073Z,4.00
2018-03-16T22:09:50.714Z,4.00
2018-03-16T22:12:19.098Z,3.90
2018-03-16T22:14:47.482Z,3.90
2018-03-16T22:17:15.903Z,3.90
2018-03-16T22:19:44.452Z,3.80
2018-03-16T22:22:12.892Z,3.80
2018-03-16T22:24:41.267Z,3.80
2018-03-16T22:27:09.587Z,3.70
2018-03-16T22:29:37.970Z,3.70
2018-03-16T22:32:06.682Z,3.60
2018-03-16T22:34:35.826Z,3.50
2018-03-16T22:37:04.210Z,3.50
2018-03-16T22:39:32.872Z,3.50
2018-03-16T22:42:02.318Z,3.60
2018-03-16T22:44:30.702Z,3.60
2018-03-16T22:46:59.084Z,3.50
2018-03-16T22:49:27.746Z,3.50
2018-03-16T22:51:56.421Z,3.50
2018-03-16T22:54:24.835Z,3.40
2018-03-16T22:56:53.461Z,3.40
2018-03-16T22:59:22.279Z,3.40
2018-03-16T23:01:50.851Z,3.40
2018-03-16T23:04:19.231Z,3.40
2018-03-16T23:06:47.607Z,3.30
2018-03-16T23:09:16.066Z,3.30
2018-03-16T23:11:44.119Z,3.20
2018-03-16T23:14:12.506Z,3.20
2018-03-16T23:16:40.870Z,3.10
2018-03-16T23:19:09.535Z,3.10
2018-03-16T23:21:38.993Z,3.30
2018-03-16T23:24:07.646Z,3.30
2018-03-16T23:26:36.046Z,3.30
2018-03-16T23:29:04.094Z,3.20
2018-03-16T23:31:32.462Z,3.20
2018-03-16T23:34:01.156Z,3.10
2018-03-16T23:36:30.564Z,3.10
2018-03-16T23:38:59.105Z,3.10
2018-03-16T23:41:27.812Z,3.10
2018-03-16T23:43:56.885Z,3.10
2018-03-16T23:46:25.271Z,3.00
2018-03-16T23:48:53.645Z,3.00
2018-03-16T23:51:21.709Z,2.90
2018-03-16T23:53:50.515Z,2.90
2018-03-16T23:56:19.377Z,2.90
2018-03-16T23:58:48.035Z,2.90
